Home > Products > Valid Products > TAF

000
FTUS43 KAPX 080134 AAA
TAFTVC
TAF AMD
KTVC 080134Z 0802/0824 VRB03KT P6SM OVC035
     FM080330 VRB02KT P6SM OVC025
     FM080600 VRB02KT P6SM OVC018
     FM080800 VRB03KT 5SM BR OVC009
     FM081500 VRB02KT 6SM BR OVC015
     FM082200 27003KT 5SM BR OVC009=



000
FTUS43 KAPX 080133 AAA
TAFPLN
TAF AMD
KPLN 080133Z 0802/0824 21003KT P6SM OVC035
     FM080330 00000KT P6SM OVC025
     FM080500 00000KT 4SM BR OVC015
     FM080900 00000KT 3SM BR OVC007
     FM081500 VRB02KT 6SM BR OVC015
     FM082200 27003KT 3SM BR OVC007=



000
FTUS43 KAPX 072330
TAFTVC
TAF
KTVC 072330Z 0800/0824 20008G15KT P6SM OVC035
      TEMPO 0800/0802 OVC028
     FM080200 VRB03KT P6SM OVC025
     FM080400 VRB02KT P6SM OVC018
     FM080800 VRB03KT 5SM BR OVC009
     FM081500 VRB02KT 6SM BR OVC015
     FM082200 27003KT 5SM BR OVC009=



000
FTUS43 KAPX 072330
TAFPLN
TAF
KPLN 072330Z 0800/0824 17004KT P6SM OVC035
     FM080100 00000KT P6SM OVC025
     FM080330 00000KT 5SM BR OVC012
     FM080900 00000KT 3SM BR OVC007
     FM081500 VRB02KT 6SM BR OVC015
     FM082200 27003KT 3SM BR OVC007=



000
FTUS43 KAPX 072330
TAFPLN
TAF
KPLN 072330Z 0800/0824 17004KT P6SM OVC035
     FM080100 00000KT P6SM OVC025
     FM080330 00000KT 5SM BR OVC012
     FM080900 00000KT 3SM BR OVC007
     FM081500 VRB02KT 6SM BR OVC015
     FM082200 27003KT 3SM BR OVC007=



000
FTUS43 KAPX 072330
TAFAPN
TAF
KAPN 072330Z 0800/0824 16012KT P6SM SCT080 OVC100
     FM080300 17004KT P6SM OVC022
     FM080500 17003KT 6SM BR OVC015
     FM080900 00000KT 4SM BR OVC007
     FM081500 VRB02KT 6SM BR OVC015
     FM082200 27003KT 3SM BR OVC007=



000
FTUS43 KAPX 072330
TAFTVC
TAF
KTVC 072330Z 0800/0824 20008G15KT P6SM OVC035
      TEMPO 0800/0802 OVC028
     FM080200 VRB03KT P6SM OVC025
     FM080400 VRB02KT P6SM OVC018
     FM080800 VRB03KT 5SM BR OVC009
     FM081500 VRB02KT 6SM BR OVC015
     FM082200 27003KT 5SM BR OVC009=



000
FTUS43 KAPX 072330
TAFAPN
TAF
KAPN 072330Z 0800/0824 16012KT P6SM SCT080 OVC100
     FM080300 17004KT P6SM OVC022
     FM080500 17003KT 6SM BR OVC015
     FM080900 00000KT 4SM BR OVC007
     FM081500 VRB02KT 6SM BR OVC015
     FM082200 27003KT 3SM BR OVC007=



000
FTUS43 KAPX 072159 AAA
TAFPLN
TAF AMD
KPLN 072159Z 0722/0818 00000KT P6SM OVC035
     FM080000 17004KT 6SM BR OVC022
     FM080300 00000KT 3SM BR OVC012
     FM080900 00000KT 1 1/2SM -DZ BR OVC007=



000
FTUS43 KAPX 072156 AAA
TAFAPN
TAF AMD
KAPN 072156Z 0722/0818 16012KT P6SM SCT080 OVC100
     FM080300 17004KT 6SM BR OVC022
     FM080500 17003KT 4SM BR OVC015
     FM080900 VRB02KT 2SM -DZ BR OVC007=



000
FTUS43 KAPX 072143 AAA
TAFTVC
TAF AMD
KTVC 072143Z 0722/0818 20008G15KT P6SM BKN035
      TEMPO 0722/0801 BKN028
     FM080100 VRB03KT P6SM OVC025
     FM080300 VRB03KT 6SM BR OVC015
     FM080800 VRB02KT 2SM -DZ BR OVC009=



000
FTUS43 KAPX 071722
TAFTVC
TAF
KTVC 071722Z 0718/0818 20007KT P6SM SCT028 BKN050
     FM072300 VRB03KT P6SM OVC015
     FM080300 VRB03KT 6SM BR OVC012
     FM080800 VRB02KT 2SM -DZ BR OVC009=



000
FTUS43 KAPX 071722
TAFAPN
TAF
KAPN 071722Z 0718/0818 17010KT P6SM OVC080
     FM072200 17006KT P6SM OVC028
     FM080400 17004KT 4SM BR OVC015
     FM080900 VRB02KT 2SM -DZ BR OVC007=



000
FTUS43 KAPX 071722
TAFPLN
TAF
KPLN 071722Z 0718/0818 19007KT P6SM OVC025
     FM080000 17004KT 5SM BR OVC015
     FM080900 VRB02KT 1 1/2SM -DZ BR OVC007=



000
FTUS43 KAPX 071120
TAFAPN
TAF
KAPN 071120Z 0712/0812 13005KT P6SM OVC070
     FM071600 17010KT P6SM OVC090
     FM072200 17006KT P6SM OVC018
     FM080100 17004KT 5SM BR OVC012
     FM080900 VRB02KT 2SM BR OVC009=



000
FTUS43 KAPX 071120
TAFTVC
TAF
KTVC 071120Z 0712/0812 18006KT P6SM OVC080 WS020/21032KT
     FM071900 12007KT P6SM OVC015
     FM080300 20004KT 6SM BR OVC012
     FM080800 VRB02KT 3SM BR OVC009=



000
FTUS43 KAPX 071120
TAFPLN
TAF
KPLN 071120Z 0712/0812 19006KT P6SM OVC070 WS020/21030KT
     FM072000 17010KT P6SM OVC014
     FM080100 18003KT 5SM BR OVC010
     FM080900 VRB02KT 2SM BR OVC008=



000
FTUS43 KAPX 070527
TAFTVC
TAF
KTVC 070527Z 0706/0806 17004KT P6SM OVC100 WS020/21032KT
     FM071600 18009KT 6SM BR OVC015
     FM080000 20004KT 6SM BR OVC007=



000
FTUS43 KAPX 070527
TAFPLN
TAF
KPLN 070527Z 0706/0806 21006KT P6SM OVC022
     FM070800 19005KT P6SM SCT022 OVC100 WS020/21025KT
     FM071000 19006KT P6SM OVC060 WS020/21030KT
     FM071600 17009KT 4SM -SN BR OVC015
     FM080000 17004KT 5SM BR OVC012=



000
FTUS43 KAPX 070527
TAFAPN
TAF
KAPN 070527Z 0706/0806 19005KT P6SM OVC080
     FM071900 17009KT P6SM OVC015
     FM080000 17004KT 5SM BR OVC012=



000
FTUS43 KAPX 070527
TAFPLN
TAF
KPLN 070527Z 0706/0806 21006KT P6SM OVC022
     FM070800 19005KT P6SM SCT022 OVC100 WS020/21025KT
     FM071000 19006KT P6SM OVC060 WS020/21030KT
     FM071600 17009KT 4SM -SN BR OVC015
     FM080000 17004KT 5SM BR OVC012=



000
FTUS43 KAPX 070527
TAFAPN
TAF
KAPN 070527Z 0706/0806 19005KT P6SM OVC080
     FM071900 17009KT P6SM OVC015
     FM080000 17004KT 5SM BR OVC012=



000
FTUS43 KAPX 070527
TAFTVC
TAF
KTVC 070527Z 0706/0806 17004KT P6SM OVC100 WS020/21032KT
     FM071600 18009KT 6SM BR OVC015
     FM080000 20004KT 6SM BR OVC007=



000
FTUS43 KAPX 070325 AAA
TAFPLN
TAF AMD
KPLN 070325Z 0703/0724 21006KT P6SM OVC020
     FM070600 18006KT P6SM OVC100
     FM071000 19006KT P6SM OVC060 WS020/21028KT
     FM071600 17009KT 4SM BR OVC015=



000
FTUS43 KAPX 070324 AAB
TAFTVC
TAF AMD
KTVC 070324Z 0703/0724 VRB03KT P6SM BKN017 OVC120
     FM070500 VRB03KT P6SM OVC100
     FM070900 19006KT P6SM OVC080 WS020/21032KT
     FM071600 17009KT 6SM BR OVC015=



000
FTUS43 KAPX 070324 AAB
TAFTVC
TAF AMD
KTVC 070324Z 0703/0724 VRB03KT P6SM BKN017 OVC120
     FM070500 VRB03KT P6SM OVC100
     FM070900 19006KT P6SM OVC080 WS020/21032KT
     FM071600 17009KT 6SM BR OVC015=



000
FTUS43 KAPX 070323 AAA
TAFAPN
TAF AMD
KAPN 070323Z 0703/0724 19005KT P6SM SCT025 OVC080
     FM070500 18005KT P6SM OVC090
     FM071900 17009KT P6SM OVC015=



000
FTUS43 KAPX 070323 AAA
TAFAPN
TAF AMD
KAPN 070323Z 0703/0724 19005KT P6SM SCT025 OVC080
     FM070500 18005KT P6SM OVC090
     FM071900 17009KT P6SM OVC015=



000
FTUS43 KAPX 070128 AAA
TAFTVC
TAF AMD
KTVC 070128Z 0701/0724 VRB04KT P6SM BKN022 OVC120
     FM070210 19006KT P6SM OVC100
     FM070900 19006KT P6SM OVC080 WS020/21032KT
     FM071600 17009KT 6SM BR OVC015=



000
FTUS43 KAPX 070128 AAA
TAFTVC
TAF AMD
KTVC 070128Z 0701/0724 VRB04KT P6SM BKN022 OVC120
     FM070210 19006KT P6SM OVC100
     FM070900 19006KT P6SM OVC080 WS020/21032KT
     FM071600 17009KT 6SM BR OVC015=



000
FTUS43 KAPX 062321
TAFAPN
TAF
KAPN 062321Z 0700/0724 24007KT P6SM OVC025
     FM070500 18005KT P6SM OVC090
     FM071900 17009KT P6SM OVC015=



000
FTUS43 KAPX 062321
TAFTVC
TAF
KTVC 062321Z 0700/0724 24006KT P6SM OVC020
     FM070300 19006KT P6SM OVC100
     FM070900 19006KT P6SM OVC080 WS020/21032KT
     FM071600 17009KT 6SM BR OVC015=



000
FTUS43 KAPX 062321
TAFPLN
TAF
KPLN 062321Z 0700/0724 23005KT P6SM OVC019
     FM070500 18006KT P6SM OVC100
     FM071000 19006KT P6SM OVC060 WS020/21028KT
     FM071600 17009KT 4SM BR OVC015=



000
FTUS43 KAPX 062321
TAFPLN
TAF
KPLN 062321Z 0700/0724 23005KT P6SM OVC019
     FM070500 18006KT P6SM OVC100
     FM071000 19006KT P6SM OVC060 WS020/21028KT
     FM071600 17009KT 4SM BR OVC015=



000
FTUS43 KAPX 062321
TAFTVC
TAF
KTVC 062321Z 0700/0724 24006KT P6SM OVC020
     FM070300 19006KT P6SM OVC100
     FM070900 19006KT P6SM OVC080 WS020/21032KT
     FM071600 17009KT 6SM BR OVC015=



000
FTUS43 KAPX 062321
TAFAPN
TAF
KAPN 062321Z 0700/0724 24007KT P6SM OVC025
     FM070500 18005KT P6SM OVC090
     FM071900 17009KT P6SM OVC015=



000
FTUS43 KAPX 061738
TAFAPN
TAF
KAPN 061738Z 0618/0718 26010G18KT P6SM -SN OVC024
     FM062100 24007KT P6SM OVC025
     FM070500 18005KT P6SM SCT025 OVC090
     FM071300 17009KT P6SM SCT020 OVC090=



000
FTUS43 KAPX 061738
TAFPLN
TAF
KPLN 061738Z 0618/0718 26008KT P6SM -SHSN OVC017
     FM062300 23005KT P6SM OVC019
     FM070500 18006KT P6SM SCT020 OVC100
     FM071000 19006KT P6SM VCSH SCT020 OVC060 WS020/21034KT=



000
FTUS43 KAPX 061738
TAFTVC
TAF
KTVC 061738Z 0618/0718 25007KT P6SM -SHSN OVC018
     FM062000 24006KT P6SM OVC018
     FM070300 19006KT P6SM SCT020 OVC100
     FM070900 19006KT P6SM SCT020 OVC090 WS020/21034KT=



000
FTUS43 KAPX 061309 AAA
TAFPLN
TAF AMD
KPLN 061309Z 0613/0712 27010KT 1 1/2SM -SHSN BKN010 OVC015
     FM061500 27010G20KT P6SM -SHSN OVC015
      TEMPO 0615/0617 5SM -SHSN
     FM062300 23005KT P6SM OVC018
     FM070600 19008KT P6SM BKN060=



000
FTUS43 KAPX 061309 AAA
TAFPLN
TAF AMD
KPLN 061309Z 0613/0712 27010KT 1 1/2SM -SHSN BKN010 OVC015
     FM061500 27010G20KT P6SM -SHSN OVC015
      TEMPO 0615/0617 5SM -SHSN
     FM062300 23005KT P6SM OVC018
     FM070600 19008KT P6SM BKN060=



000
FTUS43 KAPX 061127
TAFTVC
TAF
KTVC 061127Z 0612/0712 23008KT 3SM -SHSN OVC024
     FM061500 24007KT P6SM -SHSN OVC015
     FM070000 22005KT P6SM OVC018
     FM070700 20007KT P6SM SCT015 OVC060=



000
FTUS43 KAPX 061127
TAFPLN
TAF
KPLN 061127Z 0612/0712 24010KT 3SM -SHSN OVC014 WS020/25035KT
      TEMPO 0612/0613 1SM -SHSN
     FM061400 27010G20KT P6SM -SHSN OVC015
      TEMPO 0614/0616 5SM -SHSN
     FM062300 23005KT P6SM OVC018
     FM070600 19008KT P6SM BKN060=



000
FTUS43 KAPX 061127
TAFAPN
TAF
KAPN 061127Z 0612/0712 21006KT P6SM OVC080 WS020/25032KT
     FM061700 26010G18KT P6SM OVC019
     FM070000 23005KT P6SM BKN022 OVC060
     FM070400 19005KT P6SM SCT022 OVC090=



000
FTUS43 KAPX 061127
TAFTVC
TAF
KTVC 061127Z 0612/0712 23008KT 3SM -SHSN OVC024
     FM061500 24007KT P6SM -SHSN OVC015
     FM070000 22005KT P6SM OVC018
     FM070700 20007KT P6SM SCT015 OVC060=



000
FTUS43 KAPX 061127
TAFAPN
TAF
KAPN 061127Z 0612/0712 21006KT P6SM OVC080 WS020/25032KT
     FM061700 26010G18KT P6SM OVC019
     FM070000 23005KT P6SM BKN022 OVC060
     FM070400 19005KT P6SM SCT022 OVC090=



000
FTUS43 KAPX 061127
TAFPLN
TAF
KPLN 061127Z 0612/0712 24010KT 3SM -SHSN OVC014 WS020/25035KT
      TEMPO 0612/0613 1SM -SHSN
     FM061400 27010G20KT P6SM -SHSN OVC015
      TEMPO 0614/0616 5SM -SHSN
     FM062300 23005KT P6SM OVC018
     FM070600 19008KT P6SM BKN060=



000
FTUS43 KAPX 060525
TAFAPN
TAF
KAPN 060525Z 0606/0706 VRB03KT P6SM OVC150
     FM061000 21006KT P6SM OVC080 WS020/25032KT
     FM061700 26010G18KT P6SM OVC025
     FM070000 23005KT P6SM OVC080=



000
FTUS43 KAPX 060525
TAFTVC
TAF
KTVC 060525Z 0606/0706 VRB04KT P6SM SCT035 BKN250
     FM060700 23006KT P6SM SCT018 OVC090 WS020/24030KT
     FM061200 24008KT 4SM -SHSN OVC025
     FM070000 22005KT P6SM OVC018=



000
FTUS43 KAPX 060525
TAFPLN
TAF
KPLN 060525Z 0606/0706 VRB03KT P6SM SCT025 BKN100 WS020/24030KT
     FM061000 24010KT 2SM -SHSN OVC018
     FM061600 27010KT 4SM -SHSN OVC022
     FM062300 23005KT P6SM OVC022=



000
FTUS43 KAPX 052347
TAFAPN
TAF
KAPN 052347Z 0600/0624 23003KT P6SM BKN150
     FM061000 21006KT P6SM OVC080 WS020/25032KT
     FM061500 24010KT P6SM BKN028 OVC060=



000
FTUS43 KAPX 052347
TAFTVC
TAF
KTVC 052347Z 0600/0624 28007KT P6SM SCT035 BKN250
     FM060700 23006KT P6SM SCT018 OVC090 WS020/24030KT
     FM061200 24008KT 4SM -SHSN OVC025=



000
FTUS43 KAPX 052347
TAFPLN
TAF
KPLN 052347Z 0600/0624 25003KT P6SM SCT028 OVC040
     FM060400 26004KT P6SM SCT025 BKN100 WS020/24030KT
     FM061000 24010KT 2SM -SHSN OVC018
     FM061500 27010KT 4SM -SHSN OVC022=



000
FTUS43 KAPX 052347
TAFAPN
TAF
KAPN 052347Z 0600/0624 23003KT P6SM BKN150
     FM061000 21006KT P6SM OVC080 WS020/25032KT
     FM061500 24010KT P6SM BKN028 OVC060=



000
FTUS43 KAPX 052347
TAFTVC
TAF
KTVC 052347Z 0600/0624 28007KT P6SM SCT035 BKN250
     FM060700 23006KT P6SM SCT018 OVC090 WS020/24030KT
     FM061200 24008KT 4SM -SHSN OVC025=



000
FTUS43 KAPX 052347
TAFPLN
TAF
KPLN 052347Z 0600/0624 25003KT P6SM SCT028 OVC040
     FM060400 26004KT P6SM SCT025 BKN100 WS020/24030KT
     FM061000 24010KT 2SM -SHSN OVC018
     FM061500 27010KT 4SM -SHSN OVC022=



000
FTUS43 KAPX 052155 AAA
TAFPLN
TAF AMD
KPLN 052155Z 0522/0618 28007KT P6SM SCT040
     FM060100 26004KT P6SM SCT025 BKN100
     FM060900 24010KT 3SM -SHSN OVC015
     FM061500 27010KT 4SM -SHSN OVC021=



000
FTUS43 KAPX 052155 AAA
TAFTVC
TAF AMD
KTVC 052155Z 0522/0618 29004KT P6SM BKN035
     FM060000 22003KT P6SM SCT025 BKN120
     FM060900 23006KT P6SM SCT018 OVC090 WS020/24032KT
     FM061200 24008KT 2SM -SHSN OVC018=



000
FTUS43 KAPX 052155 AAA
TAFAPN
TAF AMD
KAPN 052155Z 0522/0618 28004KT P6SM BKN050
     FM060000 24003KT P6SM BKN120
     FM061000 21006KT P6SM OVC080 WS020/25032KT
     FM061500 24010KT P6SM VCSH BKN030 OVC060=



000
FTUS43 KAPX 051726
TAFTVC
TAF
KTVC 051726Z 0518/0618 28004KT 5SM -SHSN OVC025
     FM052200 27004KT P6SM BKN025
     FM060000 22003KT P6SM SCT025 BKN120
     FM060900 23006KT P6SM SCT018 OVC090 WS020/24032KT
     FM061200 24008KT 2SM -SHSN OVC018=



000
FTUS43 KAPX 051726
TAFPLN
TAF
KPLN 051726Z 0518/0618 30007KT P6SM -SHSN BKN021 OVC050
     FM060100 26004KT P6SM SCT025 BKN100
     FM060900 24010KT 3SM -SHSN OVC015
     FM061500 27010KT 4SM -SHSN OVC021=



000
FTUS43 KAPX 051726
TAFAPN
TAF
KAPN 051726Z 0518/0618 28006KT P6SM -SHSN OVC028
     FM060000 24003KT P6SM BKN120
     FM061000 21006KT P6SM OVC080 WS020/25032KT
     FM061500 24010KT P6SM VCSH BKN030 OVC060=



000
FTUS43 KAPX 051726
TAFAPN
TAF
KAPN 051726Z 0518/0618 28006KT P6SM -SHSN OVC028
     FM060000 24003KT P6SM BKN120
     FM061000 21006KT P6SM OVC080 WS020/25032KT
     FM061500 24010KT P6SM VCSH BKN030 OVC060=



000
FTUS43 KAPX 051726
TAFTVC
TAF
KTVC 051726Z 0518/0618 28004KT 5SM -SHSN OVC025
     FM052200 27004KT P6SM BKN025
     FM060000 22003KT P6SM SCT025 BKN120
     FM060900 23006KT P6SM SCT018 OVC090 WS020/24032KT
     FM061200 24008KT 2SM -SHSN OVC018=



000
FTUS43 KAPX 051726
TAFPLN
TAF
KPLN 051726Z 0518/0618 30007KT P6SM -SHSN BKN021 OVC050
     FM060100 26004KT P6SM SCT025 BKN100
     FM060900 24010KT 3SM -SHSN OVC015
     FM061500 27010KT 4SM -SHSN OVC021=



000
FTUS43 KAPX 051136
TAFTVC
TAF
KTVC 051136Z 0512/0612 26005KT 5SM -SHSN OVC021
     FM051500 30006KT P6SM -SHSN BKN025
     FM060000 20003KT P6SM SCT028 BKN090
     FM060900 24007KT 5SM -SHSN OVC040 WS020/24030KT=



000
FTUS43 KAPX 051136
TAFAPN
TAF
KAPN 051136Z 0512/0612 VRB03KT P6SM OVC035
     FM051500 27007KT P6SM VCSH BKN028 OVC035
     FM060100 VRB03KT P6SM BKN090
     FM060900 22005KT P6SM BKN070 WS020/25028KT=



000
FTUS43 KAPX 051136
TAFPLN
TAF
KPLN 051136Z 0512/0612 23004KT 3SM -SHSN OVC016
      TEMPO 0512/0513 1SM -SHSN
     FM051300 29007KT P6SM -SHSN BKN021 OVC035
      TEMPO 0513/0515 3SM -SHSN
     FM060000 VRB03KT P6SM VCSH BKN030 OVC070
     FM060800 22008G15KT 3SM -SHSN OVC012 WS020/24032KT=



000
FTUS43 KAPX 051136
TAFTVC
TAF
KTVC 051136Z 0512/0612 26005KT 5SM -SHSN OVC021
     FM051500 30006KT P6SM -SHSN BKN025
     FM060000 20003KT P6SM SCT028 BKN090
     FM060900 24007KT 5SM -SHSN OVC040 WS020/24030KT=



000
FTUS43 KAPX 051136
TAFAPN
TAF
KAPN 051136Z 0512/0612 VRB03KT P6SM OVC035
     FM051500 27007KT P6SM VCSH BKN028 OVC035
     FM060100 VRB03KT P6SM BKN090
     FM060900 22005KT P6SM BKN070 WS020/25028KT=



000
FTUS43 KAPX 051136
TAFPLN
TAF
KPLN 051136Z 0512/0612 23004KT 3SM -SHSN OVC016
      TEMPO 0512/0513 1SM -SHSN
     FM051300 29007KT P6SM -SHSN BKN021 OVC035
      TEMPO 0513/0515 3SM -SHSN
     FM060000 VRB03KT P6SM VCSH BKN030 OVC070
     FM060800 22008G15KT 3SM -SHSN OVC012 WS020/24032KT=



000
FTUS43 KAPX 051033 AAA
TAFPLN
TAF AMD
KPLN 051033Z 0511/0606 23004KT 2SM -SHSN OVC016
      TEMPO 0511/0513 1SM -SHSN
     FM051300 29007KT P6SM -SHSN BKN025 OVC035
      TEMPO 0513/0515 3SM -SHSN
     FM060000 VRB03KT P6SM BKN035 OVC070=



000
FTUS43 KAPX 050520
TAFAPN
TAF
KAPN 050520Z 0506/0606 VRB03KT P6SM OVC035
     FM051500 27007KT P6SM VCSH BKN028 OVC035
     FM060000 VRB03KT P6SM BKN090=



000
FTUS43 KAPX 050520
TAFAPN
TAF
KAPN 050520Z 0506/0606 VRB03KT P6SM OVC035
     FM051500 27007KT P6SM VCSH BKN028 OVC035
     FM060000 VRB03KT P6SM BKN090=



000
FTUS43 KAPX 050520
TAFPLN
TAF
KPLN 050520Z 0506/0606 24004KT P6SM -SHSN SCT015 OVC025
     FM050800 20003KT 3SM -SHSN OVC019
     FM051200 29007KT P6SM -SHSN BKN025 OVC035
     FM060000 VRB03KT P6SM BKN035 OVC070=



000
FTUS43 KAPX 050520
TAFTVC
TAF
KTVC 050520Z 0506/0606 21004KT P6SM -SHSN BKN025 OVC070
     FM051000 26005KT 5SM -SHSN BKN021
     FM051600 30006KT P6SM -SHSN BKN028
     FM060000 20003KT P6SM BKN090=



000
FTUS43 KAPX 050520
TAFTVC
TAF
KTVC 050520Z 0506/0606 21004KT P6SM -SHSN BKN025 OVC070
     FM051000 26005KT 5SM -SHSN BKN021
     FM051600 30006KT P6SM -SHSN BKN028
     FM060000 20003KT P6SM BKN090=



000
FTUS43 KAPX 050520
TAFPLN
TAF
KPLN 050520Z 0506/0606 24004KT P6SM -SHSN SCT015 OVC025
     FM050800 20003KT 3SM -SHSN OVC019
     FM051200 29007KT P6SM -SHSN BKN025 OVC035
     FM060000 VRB03KT P6SM BKN035 OVC070=



000
FTUS43 KAPX 050254 AAA
TAFAPN
TAF AMD
KAPN 050254Z 0503/0524 VRB03KT P6SM SCT025 OVC035
     FM051500 27007KT P6SM SCT025 OVC035=



000
FTUS43 KAPX 050254 AAA
TAFTVC
TAF AMD
KTVC 050254Z 0503/0524 VRB03KT P6SM VCSH SCT025 OVC035
     FM050600 24004KT 3SM -SHSN SCT015 OVC025
     FM051200 29006KT P6SM VCSH BKN025 OVC035=



    US Dept of Commerce
    National Oceanic and Atmospheric Administration
    National Weather Service
    1325 East West Highway
    Silver Spring, MD 20910
    Page Author: NWS Internet Services Team
Disclaimer
Information Quality
Credits
Glossary
Privacy Policy
Freedom of Information Act (FOIA)
About Us
Career Opportunities